KHSV/HSV METAR and TAF weather

Enter ICAO airport designator
Station Type Date Time Source
KHSV METAR 2021/10/24 21:53 UTC NOAA

KHSV 242153Z 14007KT 10SM BKN220 22/14 A2999 RMK AO2 SLP153 T02170139


Station Type Date Time Source
KHSV Decoded METAR 2021/10/24 21:53 UTC NOAA

HUNTSVILLE INTERNATIONAL JONES FIELD, AL, United States (KHSV) 34-39N 086-47W 191M
Oct 24, 2021 - 05:53 PM EDT / 2021.10.24 2153 UTC
Wind: from the SE (140 degrees) at 8 MPH (7 KT):0
Visibility: 10 mile(s):0
Sky conditions: mostly cloudy
Temperature: 71.1 F (21.7 C)
Dew Point: 57.0 F (13.9 C)
Relative Humidity: 61%
Pressure (altimeter): 29.99 in. Hg (1015 hPa)
ob: KHSV 242153Z 14007KT 10SM BKN220 22/14 A2999 RMK AO2 SLP153 T02170139
cycle: 22

Station Type Date Time Source
KHSV TAF 2021/10/24 18:36 UTC NOAA

TAF KHSV 241733Z 2418/2518 17007G12KT P6SM OVC250
FM250000 15006KT P6SM OVC250
FM250300 15006KT P6SM BKN250 WS020/20030KT
FM251200 17009KT P6SM OVC040
FM251400 18011KT P6SM -SHRA OVC015 PROB30 2515/2518 4SM -TSRA BR OVC009CB

Example: see airport list